Terminal Aerodrome Forecast
Issued by NWS Upton, NY

Home | Current Version | Previous Version | Text Only | Print | Product List | Glossary On
Versions: 1 2 3 4 5 6 7 8 9 10 11 12 13 14 15 16 17 18 19 20 21 22 23 24 25
000
FTUS41 KOKX 310800 AAA
TAFBDR
TAF AMD
KBDR 310836Z 3109/0106 21009KT P6SM SCT025 OVC040
      TEMPO 3109/3111 SCT015 OVC025
     FM311100 21007KT 6SM BR OVC015
     FM311500 20009KT P6SM FEW025 SCT040 BKN200
     FM311900 19010G16KT P6SM SCT020 SCT040 BKN150
     FM010000 21006KT 4SM SHRA BR SCT040 BKN080 PROB30 0100/0106
      TSRA BKN040CB=

USA.gov is the U.S. government's official web portal to all federal, state and local government web resources and services.